sensor_id;sensor_type;location;lat;lon;timestamp;P1;durP1;ratioP1;P2;durP2;ratioP2
31262;SDS011;17892;52.080;9.006;2023-02-24T00:01:37;11.68;;;1.40;;
31262;SDS011;17892;52.080;9.006;2023-02-24T00:04:05;6.70;;;1.30;;
31262;SDS011;17892;52.080;9.006;2023-02-24T00:09:05;8.82;;;2.20;;
31262;SDS011;17892;52.080;9.006;2023-02-24T00:11:40;7.60;;;1.20;;
31262;SDS011;17892;52.080;9.006;2023-02-24T00:16:39;4.70;;;1.20;;
31262;SDS011;17892;52.080;9.006;2023-02-24T00:19:07;5.25;;;0.93;;
31262;SDS011;17892;52.080;9.006;2023-02-24T00:21:38;5.80;;;1.20;;
31262;SDS011;17892;52.080;9.006;2023-02-24T00:24:04;4.25;;;0.80;;
31262;SDS011;17892;52.080;9.006;2023-02-24T00:26:31;6.95;;;1.70;;
31262;SDS011;17892;52.080;9.006;2023-02-24T00:28:57;4.93;;;1.20;;
31262;SDS011;17892;52.080;9.006;2023-02-24T00:31:24;6.88;;;1.35;;
31262;SDS011;17892;52.080;9.006;2023-02-24T00:33:56;7.25;;;1.92;;
31262;SDS011;17892;52.080;9.006;2023-02-24T00:36:23;5.85;;;1.05;;
31262;SDS011;17892;52.080;9.006;2023-02-24T00:38:52;4.43;;;1.20;;
31262;SDS011;17892;52.080;9.006;2023-02-24T00:41:24;7.95;;;1.55;;
31262;SDS011;17892;52.080;9.006;2023-02-24T00:43:53;5.22;;;1.15;;
31262;SDS011;17892;52.080;9.006;2023-02-24T00:46:22;6.68;;;1.27;;
31262;SDS011;17892;52.080;9.006;2023-02-24T00:48:55;4.35;;;0.80;;
31262;SDS011;17892;52.080;9.006;2023-02-24T00:51:22;5.60;;;1.65;;
31262;SDS011;17892;52.080;9.006;2023-02-24T00:53:51;4.45;;;1.08;;
31262;SDS011;17892;52.080;9.006;2023-02-24T00:56:20;4.80;;;1.30;;
31262;SDS011;17892;52.080;9.006;2023-02-24T00:58:47;6.82;;;1.52;;
31262;SDS011;17892;52.080;9.006;2023-02-24T01:01:14;5.80;;;1.30;;
31262;SDS011;17892;52.080;9.006;2023-02-24T01:03:43;6.20;;;1.35;;
31262;SDS011;17892;52.080;9.006;2023-02-24T01:06:10;9.13;;;1.20;;
31262;SDS011;17892;52.080;9.006;2023-02-24T01:08:38;8.20;;;1.55;;
31262;SDS011;17892;52.080;9.006;2023-02-24T01:11:07;7.68;;;1.33;;
31262;SDS011;17892;52.080;9.006;2023-02-24T01:13:52;7.32;;;1.30;;
31262;SDS011;17892;52.080;9.006;2023-02-24T01:16:18;9.65;;;1.35;;
31262;SDS011;17892;52.080;9.006;2023-02-24T01:18:44;7.00;;;1.17;;
31262;SDS011;17892;52.080;9.006;2023-02-24T01:21:14;6.75;;;2.17;;
31262;SDS011;17892;52.080;9.006;2023-02-24T01:23:41;5.63;;;1.90;;
31262;SDS011;17892;52.080;9.006;2023-02-24T01:26:10;6.28;;;1.30;;
31262;SDS011;17892;52.080;9.006;2023-02-24T01:28:36;7.10;;;1.10;;
31262;SDS011;17892;52.080;9.006;2023-02-24T01:31:02;4.88;;;1.20;;
31262;SDS011;17892;52.080;9.006;2023-02-24T01:33:30;5.63;;;1.48;;
31262;SDS011;17892;52.080;9.006;2023-02-24T01:36:06;5.97;;;0.93;;
31262;SDS011;17892;52.080;9.006;2023-02-24T01:38:35;6.20;;;1.25;;
31262;SDS011;17892;52.080;9.006;2023-02-24T01:41:02;7.85;;;1.85;;
31262;SDS011;17892;52.080;9.006;2023-02-24T01:43:30;5.28;;;1.20;;
31262;SDS011;17892;52.080;9.006;2023-02-24T01:45:57;6.80;;;1.00;;
31262;SDS011;17892;52.080;9.006;2023-02-24T01:48:23;4.35;;;0.90;;
31262;SDS011;17892;52.080;9.006;2023-02-24T01:50:49;5.40;;;1.10;;
31262;SDS011;17892;52.080;9.006;2023-02-24T01:53:16;3.95;;;1.23;;
31262;SDS011;17892;52.080;9.006;2023-02-24T01:55:44;4.57;;;1.30;;
31262;SDS011;17892;52.080;9.006;2023-02-24T01:58:22;7.60;;;1.50;;
31262;SDS011;17892;52.080;9.006;2023-02-24T02:00:51;7.72;;;1.40;;
31262;SDS011;17892;52.080;9.006;2023-02-24T02:03:18;6.78;;;1.48;;
31262;SDS011;17892;52.080;9.006;2023-02-24T02:05:51;8.70;;;2.45;;
31262;SDS011;17892;52.080;9.006;2023-02-24T02:08:21;5.72;;;1.45;;
31262;SDS011;17892;52.080;9.006;2023-02-24T02:10:48;6.22;;;1.48;;
31262;SDS011;17892;52.080;9.006;2023-02-24T02:13:22;8.50;;;1.45;;
31262;SDS011;17892;52.080;9.006;2023-02-24T02:18:31;10.80;;;1.75;;
31262;SDS011;17892;52.080;9.006;2023-02-24T02:22:23;11.18;;;1.65;;
31262;SDS011;17892;52.080;9.006;2023-02-24T02:30:58;8.55;;;1.73;;
31262;SDS011;17892;52.080;9.006;2023-02-24T02:36:47;6.07;;;1.70;;
31262;SDS011;17892;52.080;9.006;2023-02-24T02:42:27;7.53;;;1.88;;
31262;SDS011;17892;52.080;9.006;2023-02-24T02:50:44;7.28;;;1.40;;
31262;SDS011;17892;52.080;9.006;2023-02-24T02:53:33;8.02;;;1.40;;
31262;SDS011;17892;52.080;9.006;2023-02-24T02:58:54;6.40;;;1.67;;
31262;SDS011;17892;52.080;9.006;2023-02-24T03:01:23;5.93;;;1.75;;
31262;SDS011;17892;52.080;9.006;2023-02-24T03:03:55;8.75;;;2.28;;
31262;SDS011;17892;52.080;9.006;2023-02-24T03:06:26;7.95;;;2.42;;
31262;SDS011;17892;52.080;9.006;2023-02-24T03:08:57;8.35;;;2.05;;
31262;SDS011;17892;52.080;9.006;2023-02-24T03:11:47;5.00;;;1.65;;
31262;SDS011;17892;52.080;9.006;2023-02-24T03:14:19;4.82;;;1.48;;
31262;SDS011;17892;52.080;9.006;2023-02-24T03:16:50;7.57;;;1.88;;
31262;SDS011;17892;52.080;9.006;2023-02-24T03:19:19;14.23;;;2.22;;
31262;SDS011;17892;52.080;9.006;2023-02-24T03:22:00;7.72;;;1.60;;
31262;SDS011;17892;52.080;9.006;2023-02-24T03:24:48;3.08;;;1.63;;
31262;SDS011;17892;52.080;9.006;2023-02-24T03:27:16;8.95;;;1.67;;
31262;SDS011;17892;52.080;9.006;2023-02-24T03:29:54;5.95;;;1.67;;
31262;SDS011;17892;52.080;9.006;2023-02-24T03:32:31;5.03;;;1.40;;
31262;SDS011;17892;52.080;9.006;2023-02-24T03:37:40;5.95;;;1.45;;
31262;SDS011;17892;52.080;9.006;2023-02-24T03:40:08;8.75;;;2.42;;
31262;SDS011;17892;52.080;9.006;2023-02-24T03:42:39;4.85;;;1.20;;
31262;SDS011;17892;52.080;9.006;2023-02-24T03:45:12;6.57;;;1.10;;
31262;SDS011;17892;52.080;9.006;2023-02-24T03:47:40;5.07;;;1.13;;
31262;SDS011;17892;52.080;9.006;2023-02-24T03:50:16;4.38;;;1.50;;
31262;SDS011;17892;52.080;9.006;2023-02-24T03:52:48;8.63;;;1.30;;
31262;SDS011;17892;52.080;9.006;2023-02-24T03:55:37;3.10;;;0.80;;
31262;SDS011;17892;52.080;9.006;2023-02-24T03:58:42;5.80;;;1.23;;
31262;SDS011;17892;52.080;9.006;2023-02-24T04:01:31;3.90;;;0.80;;
31262;SDS011;17892;52.080;9.006;2023-02-24T04:12:57;4.63;;;0.90;;
31262;SDS011;17892;52.080;9.006;2023-02-24T04:18:26;4.00;;;0.80;;
31262;SDS011;17892;52.080;9.006;2023-02-24T04:23:30;2.65;;;0.75;;
31262;SDS011;17892;52.080;9.006;2023-02-24T04:26:03;3.95;;;0.80;;
31262;SDS011;17892;52.080;9.006;2023-02-24T04:28:30;4.25;;;0.95;;
31262;SDS011;17892;52.080;9.006;2023-02-24T04:30:59;4.80;;;1.00;;
31262;SDS011;17892;52.080;9.006;2023-02-24T04:33:34;2.92;;;0.63;;
31262;SDS011;17892;52.080;9.006;2023-02-24T04:36:02;4.07;;;1.13;;
31262;SDS011;17892;52.080;9.006;2023-02-24T04:38:29;2.78;;;0.77;;
31262;SDS011;17892;52.080;9.006;2023-02-24T04:40:55;2.20;;;0.60;;
31262;SDS011;17892;52.080;9.006;2023-02-24T04:43:21;3.20;;;0.80;;
31262;SDS011;17892;52.080;9.006;2023-02-24T04:45:47;3.80;;;0.52;;
31262;SDS011;17892;52.080;9.006;2023-02-24T04:48:15;5.82;;;0.90;;
31262;SDS011;17892;52.080;9.006;2023-02-24T04:50:43;4.82;;;0.90;;
31262;SDS011;17892;52.080;9.006;2023-02-24T04:53:13;5.65;;;1.05;;
31262;SDS011;17892;52.080;9.006;2023-02-24T04:55:42;4.68;;;0.90;;
31262;SDS011;17892;52.080;9.006;2023-02-24T04:58:13;2.85;;;0.70;;
31262;SDS011;17892;52.080;9.006;2023-02-24T05:00:43;3.78;;;0.57;;
31262;SDS011;17892;52.080;9.006;2023-02-24T05:03:13;3.25;;;0.57;;
31262;SDS011;17892;52.080;9.006;2023-02-24T05:05:47;4.18;;;0.52;;
31262;SDS011;17892;52.080;9.006;2023-02-24T05:08:22;3.67;;;0.68;;
31262;SDS011;17892;52.080;9.006;2023-02-24T05:10:50;2.95;;;0.75;;
31262;SDS011;17892;52.080;9.006;2023-02-24T05:13:17;4.28;;;0.60;;
31262;SDS011;17892;52.080;9.006;2023-02-24T05:15:52;8.02;;;1.13;;
31262;SDS011;17892;52.080;9.006;2023-02-24T05:18:20;1.95;;;0.70;;
31262;SDS011;17892;52.080;9.006;2023-02-24T05:20:52;10.05;;;1.15;;
31262;SDS011;17892;52.080;9.006;2023-02-24T05:23:42;1.95;;;0.63;;
31262;SDS011;17892;52.080;9.006;2023-02-24T05:26:11;4.05;;;0.98;;
31262;SDS011;17892;52.080;9.006;2023-02-24T05:28:41;3.42;;;0.88;;
31262;SDS011;17892;52.080;9.006;2023-02-24T05:31:12;5.78;;;1.00;;
31262;SDS011;17892;52.080;9.006;2023-02-24T05:33:42;7.20;;;1.00;;
31262;SDS011;17892;52.080;9.006;2023-02-24T05:36:14;3.65;;;1.00;;
31262;SDS011;17892;52.080;9.006;2023-02-24T05:38:42;7.03;;;1.23;;
31262;SDS011;17892;52.080;9.006;2023-02-24T05:41:13;4.57;;;0.73;;
31262;SDS011;17892;52.080;9.006;2023-02-24T05:43:42;3.47;;;1.00;;
31262;SDS011;17892;52.080;9.006;2023-02-24T05:46:12;9.25;;;1.52;;
31262;SDS011;17892;52.080;9.006;2023-02-24T05:48:39;5.30;;;0.80;;
31262;SDS011;17892;52.080;9.006;2023-02-24T05:51:05;6.20;;;1.02;;
31262;SDS011;17892;52.080;9.006;2023-02-24T05:53:33;3.88;;;0.80;;
31262;SDS011;17892;52.080;9.006;2023-02-24T05:56:00;3.88;;;0.90;;
31262;SDS011;17892;52.080;9.006;2023-02-24T05:58:26;4.35;;;0.70;;
31262;SDS011;17892;52.080;9.006;2023-02-24T06:00:53;7.22;;;1.50;;
31262;SDS011;17892;52.080;9.006;2023-02-24T06:03:19;3.45;;;0.80;;
31262;SDS011;17892;52.080;9.006;2023-02-24T06:05:54;5.28;;;0.98;;
31262;SDS011;17892;52.080;9.006;2023-02-24T06:08:30;3.30;;;0.88;;
31262;SDS011;17892;52.080;9.006;2023-02-24T06:13:37;8.18;;;1.17;;
31262;SDS011;17892;52.080;9.006;2023-02-24T06:16:04;5.25;;;1.20;;
31262;SDS011;17892;52.080;9.006;2023-02-24T06:18:30;2.85;;;0.50;;
31262;SDS011;17892;52.080;9.006;2023-02-24T06:20:56;9.05;;;1.10;;
31262;SDS011;17892;52.080;9.006;2023-02-24T06:23:26;3.17;;;1.00;;
31262;SDS011;17892;52.080;9.006;2023-02-24T06:25:52;5.00;;;1.02;;
31262;SDS011;17892;52.080;9.006;2023-02-24T06:28:22;5.32;;;1.00;;
31262;SDS011;17892;52.080;9.006;2023-02-24T06:30:49;4.28;;;0.73;;
31262;SDS011;17892;52.080;9.006;2023-02-24T06:33:15;2.95;;;0.70;;
31262;SDS011;17892;52.080;9.006;2023-02-24T06:35:40;4.30;;;0.98;;
31262;SDS011;17892;52.080;9.006;2023-02-24T06:38:06;2.95;;;1.05;;
31262;SDS011;17892;52.080;9.006;2023-02-24T06:40:32;3.85;;;1.23;;
31262;SDS011;17892;52.080;9.006;2023-02-24T06:42:58;2.63;;;0.90;;
31262;SDS011;17892;52.080;9.006;2023-02-24T06:45:23;3.40;;;0.60;;
31262;SDS011;17892;52.080;9.006;2023-02-24T06:47:50;4.38;;;0.68;;
31262;SDS011;17892;52.080;9.006;2023-02-24T06:50:16;2.88;;;0.60;;
31262;SDS011;17892;52.080;9.006;2023-02-24T06:52:47;2.65;;;0.68;;
31262;SDS011;17892;52.080;9.006;2023-02-24T06:55:14;2.90;;;0.77;;
31262;SDS011;17892;52.080;9.006;2023-02-24T06:57:51;5.13;;;1.15;;
31262;SDS011;17892;52.080;9.006;2023-02-24T07:00:22;2.15;;;0.55;;
31262;SDS011;17892;52.080;9.006;2023-02-24T07:03:14;4.50;;;0.60;;
31262;SDS011;17892;52.080;9.006;2023-02-24T07:05:41;3.25;;;1.10;;
31262;SDS011;17892;52.080;9.006;2023-02-24T07:08:22;2.22;;;0.65;;
31262;SDS011;17892;52.080;9.006;2023-02-24T07:10:54;4.57;;;0.73;;
31262;SDS011;17892;52.080;9.006;2023-02-24T07:13:24;3.72;;;0.88;;
31262;SDS011;17892;52.080;9.006;2023-02-24T07:15:53;3.05;;;0.68;;
31262;SDS011;17892;52.080;9.006;2023-02-24T07:18:19;3.63;;;0.90;;
31262;SDS011;17892;52.080;9.006;2023-02-24T07:20:47;2.75;;;0.50;;
31262;SDS011;17892;52.080;9.006;2023-02-24T07:23:16;2.58;;;0.73;;
31262;SDS011;17892;52.080;9.006;2023-02-24T07:25:43;2.97;;;0.75;;
31262;SDS011;17892;52.080;9.006;2023-02-24T07:28:10;4.32;;;0.98;;
31262;SDS011;17892;52.080;9.006;2023-02-24T07:30:39;5.05;;;0.93;;
31262;SDS011;17892;52.080;9.006;2023-02-24T07:33:06;2.75;;;0.57;;
31262;SDS011;17892;52.080;9.006;2023-02-24T07:35:32;2.50;;;0.90;;
31262;SDS011;17892;52.080;9.006;2023-02-24T07:38:04;4.70;;;0.82;;
31262;SDS011;17892;52.080;9.006;2023-02-24T07:40:31;5.18;;;0.95;;
31262;SDS011;17892;52.080;9.006;2023-02-24T07:43:01;4.38;;;0.95;;
31262;SDS011;17892;52.080;9.006;2023-02-24T07:45:30;4.15;;;1.10;;
31262;SDS011;17892;52.080;9.006;2023-02-24T07:47:56;2.97;;;0.95;;
31262;SDS011;17892;52.080;9.006;2023-02-24T07:50:21;3.63;;;0.90;;
31262;SDS011;17892;52.080;9.006;2023-02-24T07:52:47;5.47;;;1.00;;
31262;SDS011;17892;52.080;9.006;2023-02-24T07:55:13;5.78;;;1.40;;
31262;SDS011;17892;52.080;9.006;2023-02-24T07:57:39;4.75;;;1.10;;
31262;SDS011;17892;52.080;9.006;2023-02-24T08:00:11;4.32;;;0.88;;
31262;SDS011;17892;52.080;9.006;2023-02-24T08:02:46;4.00;;;0.98;;
31262;SDS011;17892;52.080;9.006;2023-02-24T08:05:17;4.18;;;0.90;;
31262;SDS011;17892;52.080;9.006;2023-02-24T08:07:43;6.35;;;1.60;;
31262;SDS011;17892;52.080;9.006;2023-02-24T08:10:14;3.65;;;1.10;;
31262;SDS011;17892;52.080;9.006;2023-02-24T08:12:49;4.80;;;0.90;;
31262;SDS011;17892;52.080;9.006;2023-02-24T08:15:23;3.65;;;1.00;;
31262;SDS011;17892;52.080;9.006;2023-02-24T08:17:58;6.90;;;1.60;;
31262;SDS011;17892;52.080;9.006;2023-02-24T08:20:26;4.22;;;1.08;;
31262;SDS011;17892;52.080;9.006;2023-02-24T08:22:59;2.85;;;0.85;;
31262;SDS011;17892;52.080;9.006;2023-02-24T08:25:26;5.72;;;1.05;;
31262;SDS011;17892;52.080;9.006;2023-02-24T08:27:59;2.53;;;0.80;;
31262;SDS011;17892;52.080;9.006;2023-02-24T08:30:30;3.83;;;0.85;;
31262;SDS011;17892;52.080;9.006;2023-02-24T08:33:02;5.22;;;1.35;;
31262;SDS011;17892;52.080;9.006;2023-02-24T08:35:32;4.18;;;1.45;;
31262;SDS011;17892;52.080;9.006;2023-02-24T08:40:39;5.82;;;1.05;;
31262;SDS011;17892;52.080;9.006;2023-02-24T08:43:26;3.33;;;0.80;;
31262;SDS011;17892;52.080;9.006;2023-02-24T08:45:56;5.70;;;1.27;;
31262;SDS011;17892;52.080;9.006;2023-02-24T08:48:37;4.15;;;1.15;;
31262;SDS011;17892;52.080;9.006;2023-02-24T08:53:38;7.95;;;1.20;;
31262;SDS011;17892;52.080;9.006;2023-02-24T08:56:05;3.45;;;0.88;;
31262;SDS011;17892;52.080;9.006;2023-02-24T08:58:38;5.35;;;0.93;;
31262;SDS011;17892;52.080;9.006;2023-02-24T09:01:14;2.88;;;0.68;;
31262;SDS011;17892;52.080;9.006;2023-02-24T09:03:49;3.83;;;1.13;;
31262;SDS011;17892;52.080;9.006;2023-02-24T09:06:41;5.95;;;1.30;;
31262;SDS011;17892;52.080;9.006;2023-02-24T09:09:21;4.10;;;1.10;;
31262;SDS011;17892;52.080;9.006;2023-02-24T09:11:56;6.30;;;1.20;;
31262;SDS011;17892;52.080;9.006;2023-02-24T09:16:52;2.83;;;0.85;;
31262;SDS011;17892;52.080;9.006;2023-02-24T09:22:17;4.95;;;1.30;;
31262;SDS011;17892;52.080;9.006;2023-02-24T09:25:17;3.88;;;0.98;;
31262;SDS011;17892;52.080;9.006;2023-02-24T09:30:35;6.45;;;1.08;;
31262;SDS011;17892;52.080;9.006;2023-02-24T09:33:45;6.18;;;1.45;;
31262;SDS011;17892;52.080;9.006;2023-02-24T09:36:03;6.40;;;1.02;;
31262;SDS011;17892;52.080;9.006;2023-02-24T09:38:35;5.15;;;1.25;;
31262;SDS011;17892;52.080;9.006;2023-02-24T09:47:11;4.13;;;1.27;;
31262;SDS011;17892;52.080;9.006;2023-02-24T09:50:18;5.20;;;1.20;;
31262;SDS011;17892;52.080;9.006;2023-02-24T09:52:47;2.55;;;1.00;;
31262;SDS011;17892;52.080;9.006;2023-02-24T09:55:38;4.03;;;1.20;;
31262;SDS011;17892;52.080;9.006;2023-02-24T10:01:32;3.47;;;1.35;;
31262;SDS011;17892;52.080;9.006;2023-02-24T10:07:14;3.63;;;1.10;;
31262;SDS011;17892;52.080;9.006;2023-02-24T10:09:52;4.25;;;1.17;;
31262;SDS011;17892;52.080;9.006;2023-02-24T10:12:42;3.22;;;1.10;;
31262;SDS011;17892;52.080;9.006;2023-02-24T10:15:10;6.00;;;1.52;;
31262;SDS011;17892;52.080;9.006;2023-02-24T10:17:57;5.28;;;1.30;;
31262;SDS011;17892;52.080;9.006;2023-02-24T10:20:51;2.97;;;1.10;;
31262;SDS011;17892;52.080;9.006;2023-02-24T10:27:13;3.45;;;1.10;;
31262;SDS011;17892;52.080;9.006;2023-02-24T10:30:05;3.85;;;0.95;;
31262;SDS011;17892;52.080;9.006;2023-02-24T10:32:51;2.75;;;1.02;;
31262;SDS011;17892;52.080;9.006;2023-02-24T10:35:22;3.80;;;1.27;;
31262;SDS011;17892;52.080;9.006;2023-02-24T10:37:57;3.53;;;1.20;;
31262;SDS011;17892;52.080;9.006;2023-02-24T10:40:42;4.32;;;1.38;;
31262;SDS011;17892;52.080;9.006;2023-02-24T10:43:21;4.18;;;1.25;;
31262;SDS011;17892;52.080;9.006;2023-02-24T10:45:54;3.75;;;1.00;;
31262;SDS011;17892;52.080;9.006;2023-02-24T10:48:33;3.20;;;1.30;;
31262;SDS011;17892;52.080;9.006;2023-02-24T10:51:13;3.15;;;1.08;;
31262;SDS011;17892;52.080;9.006;2023-02-24T10:54:03;2.33;;;0.90;;
31262;SDS011;17892;52.080;9.006;2023-02-24T10:57:20;2.17;;;1.00;;
31262;SDS011;17892;52.080;9.006;2023-02-24T11:00:01;3.10;;;1.02;;
31262;SDS011;17892;52.080;9.006;2023-02-24T11:02:45;1.58;;;0.70;;
31262;SDS011;17892;52.080;9.006;2023-02-24T11:05:33;2.38;;;0.98;;
31262;SDS011;17892;52.080;9.006;2023-02-24T11:08:31;2.78;;;1.10;;
31262;SDS011;17892;52.080;9.006;2023-02-24T11:13:52;3.85;;;1.17;;
31262;SDS011;17892;52.080;9.006;2023-02-24T11:16:41;2.15;;;1.20;;
31262;SDS011;17892;52.080;9.006;2023-02-24T11:19:43;3.28;;;1.42;;
31262;SDS011;17892;52.080;9.006;2023-02-24T11:22:25;4.18;;;1.70;;
31262;SDS011;17892;52.080;9.006;2023-02-24T11:24:59;4.43;;;1.60;;
31262;SDS011;17892;52.080;9.006;2023-02-24T11:27:39;5.32;;;2.10;;
31262;SDS011;17892;52.080;9.006;2023-02-24T11:42:03;4.45;;;2.35;;
31262;SDS011;17892;52.080;9.006;2023-02-24T11:44:50;4.80;;;2.22;;
31262;SDS011;17892;52.080;9.006;2023-02-24T11:47:33;4.97;;;2.67;;
31262;SDS011;17892;52.080;9.006;2023-02-24T11:53:26;3.92;;;2.70;;
31262;SDS011;17892;52.080;9.006;2023-02-24T11:56:01;3.88;;;2.53;;
31262;SDS011;17892;52.080;9.006;2023-02-24T11:58:36;5.80;;;2.75;;
31262;SDS011;17892;52.080;9.006;2023-02-24T12:01:13;5.03;;;2.80;;
31262;SDS011;17892;52.080;9.006;2023-02-24T12:04:39;4.35;;;2.42;;
31262;SDS011;17892;52.080;9.006;2023-02-24T12:10:02;6.07;;;3.00;;
31262;SDS011;17892;52.080;9.006;2023-02-24T12:16:34;4.78;;;3.17;;
31262;SDS011;17892;52.080;9.006;2023-02-24T12:19:14;4.30;;;2.88;;
31262;SDS011;17892;52.080;9.006;2023-02-24T12:21:53;4.88;;;3.40;;
31262;SDS011;17892;52.080;9.006;2023-02-24T12:24:27;5.60;;;3.20;;
31262;SDS011;17892;52.080;9.006;2023-02-24T12:27:13;5.22;;;3.80;;
31262;SDS011;17892;52.080;9.006;2023-02-24T12:30:21;6.07;;;3.80;;
31262;SDS011;17892;52.080;9.006;2023-02-24T12:36:19;7.05;;;3.97;;
31262;SDS011;17892;52.080;9.006;2023-02-24T12:39:14;5.68;;;3.63;;
31262;SDS011;17892;52.080;9.006;2023-02-24T12:47:13;6.57;;;4.20;;
31262;SDS011;17892;52.080;9.006;2023-02-24T12:53:02;6.63;;;4.20;;
31262;SDS011;17892;52.080;9.006;2023-02-24T12:58:49;6.07;;;3.35;;
31262;SDS011;17892;52.080;9.006;2023-02-24T13:01:31;5.72;;;3.67;;
31262;SDS011;17892;52.080;9.006;2023-02-24T13:04:34;5.75;;;3.80;;
31262;SDS011;17892;52.080;9.006;2023-02-24T13:13:14;8.82;;;5.68;;
31262;SDS011;17892;52.080;9.006;2023-02-24T13:15:58;7.30;;;5.15;;
31262;SDS011;17892;52.080;9.006;2023-02-24T13:18:28;7.68;;;5.35;;
31262;SDS011;17892;52.080;9.006;2023-02-24T13:23:39;6.20;;;3.97;;
31262;SDS011;17892;52.080;9.006;2023-02-24T13:26:09;7.68;;;5.13;;
31262;SDS011;17892;52.080;9.006;2023-02-24T13:28:35;9.93;;;7.30;;
31262;SDS011;17892;52.080;9.006;2023-02-24T13:31:09;7.97;;;5.28;;
31262;SDS011;17892;52.080;9.006;2023-02-24T13:36:26;10.63;;;6.18;;
31262;SDS011;17892;52.080;9.006;2023-02-24T13:39:37;8.60;;;5.15;;
31262;SDS011;17892;52.080;9.006;2023-02-24T13:42:00;10.75;;;6.47;;
31262;SDS011;17892;52.080;9.006;2023-02-24T13:44:28;8.60;;;5.68;;
31262;SDS011;17892;52.080;9.006;2023-02-24T13:47:03;9.60;;;5.63;;
31262;SDS011;17892;52.080;9.006;2023-02-24T13:53:10;9.73;;;5.80;;
31262;SDS011;17892;52.080;9.006;2023-02-24T13:55:46;10.45;;;6.03;;
31262;SDS011;17892;52.080;9.006;2023-02-24T14:03:26;9.50;;;6.05;;
31262;SDS011;17892;52.080;9.006;2023-02-24T14:05:54;9.77;;;6.47;;
31262;SDS011;17892;52.080;9.006;2023-02-24T14:08:26;9.73;;;6.20;;
31262;SDS011;17892;52.080;9.006;2023-02-24T14:11:00;9.45;;;6.85;;
31262;SDS011;17892;52.080;9.006;2023-02-24T14:13:31;8.93;;;5.68;;
31262;SDS011;17892;52.080;9.006;2023-02-24T14:15:58;8.95;;;5.18;;
31262;SDS011;17892;52.080;9.006;2023-02-24T14:18:30;9.30;;;5.43;;
31262;SDS011;17892;52.080;9.006;2023-02-24T14:20:56;11.45;;;7.50;;
31262;SDS011;17892;52.080;9.006;2023-02-24T14:23:26;7.50;;;5.20;;
31262;SDS011;17892;52.080;9.006;2023-02-24T14:25:57;10.10;;;5.68;;
31262;SDS011;17892;52.080;9.006;2023-02-24T14:28:32;10.48;;;6.07;;
31262;SDS011;17892;52.080;9.006;2023-02-24T14:31:02;11.63;;;6.65;;
31262;SDS011;17892;52.080;9.006;2023-02-24T14:33:35;9.65;;;5.75;;
31262;SDS011;17892;52.080;9.006;2023-02-24T14:36:05;9.88;;;6.45;;
31262;SDS011;17892;52.080;9.006;2023-02-24T14:38:39;13.35;;;8.40;;
31262;SDS011;17892;52.080;9.006;2023-02-24T14:41:20;10.20;;;5.95;;
31262;SDS011;17892;52.080;9.006;2023-02-24T14:43:49;8.70;;;5.38;;
31262;SDS011;17892;52.080;9.006;2023-02-24T14:46:17;10.57;;;6.25;;
31262;SDS011;17892;52.080;9.006;2023-02-24T14:48:43;9.60;;;6.47;;
31262;SDS011;17892;52.080;9.006;2023-02-24T14:54:02;10.18;;;5.65;;
31262;SDS011;17892;52.080;9.006;2023-02-24T14:56:32;10.13;;;5.50;;
31262;SDS011;17892;52.080;9.006;2023-02-24T14:59:01;8.35;;;5.28;;
31262;SDS011;17892;52.080;9.006;2023-02-24T15:04:14;9.93;;;5.45;;
31262;SDS011;17892;52.080;9.006;2023-02-24T15:06:57;6.88;;;4.13;;
31262;SDS011;17892;52.080;9.006;2023-02-24T15:09:32;7.78;;;4.07;;
31262;SDS011;17892;52.080;9.006;2023-02-24T15:14:46;5.85;;;3.47;;
31262;SDS011;17892;52.080;9.006;2023-02-24T15:17:43;5.45;;;3.47;;
31262;SDS011;17892;52.080;9.006;2023-02-24T15:23:04;6.15;;;3.20;;
31262;SDS011;17892;52.080;9.006;2023-02-24T15:25:50;9.00;;;5.78;;
31262;SDS011;17892;52.080;9.006;2023-02-24T15:28:26;8.55;;;4.90;;
31262;SDS011;17892;52.080;9.006;2023-02-24T15:31:14;7.72;;;4.07;;
31262;SDS011;17892;52.080;9.006;2023-02-24T15:33:43;6.05;;;3.72;;
31262;SDS011;17892;52.080;9.006;2023-02-24T15:36:18;10.32;;;6.70;;
31262;SDS011;17892;52.080;9.006;2023-02-24T15:38:49;7.57;;;4.28;;
31262;SDS011;17892;52.080;9.006;2023-02-24T15:41:18;8.07;;;4.47;;
31262;SDS011;17892;52.080;9.006;2023-02-24T15:43:47;7.18;;;4.00;;
31262;SDS011;17892;52.080;9.006;2023-02-24T15:49:00;7.05;;;4.78;;
31262;SDS011;17892;52.080;9.006;2023-02-24T15:51:41;8.65;;;3.92;;
31262;SDS011;17892;52.080;9.006;2023-02-24T15:54:11;8.15;;;3.75;;
31262;SDS011;17892;52.080;9.006;2023-02-24T15:56:43;6.35;;;2.70;;
31262;SDS011;17892;52.080;9.006;2023-02-24T15:59:14;5.97;;;3.58;;
31262;SDS011;17892;52.080;9.006;2023-02-24T16:01:42;9.55;;;5.15;;
31262;SDS011;17892;52.080;9.006;2023-02-24T16:04:08;7.70;;;4.25;;
31262;SDS011;17892;52.080;9.006;2023-02-24T16:06:34;10.43;;;6.28;;
31262;SDS011;17892;52.080;9.006;2023-02-24T16:09:06;9.93;;;4.63;;
31262;SDS011;17892;52.080;9.006;2023-02-24T16:11:37;10.63;;;5.82;;
31262;SDS011;17892;52.080;9.006;2023-02-24T16:14:07;9.20;;;5.00;;
31262;SDS011;17892;52.080;9.006;2023-02-24T16:16:38;9.60;;;5.25;;
31262;SDS011;17892;52.080;9.006;2023-02-24T16:19:05;9.55;;;4.90;;
31262;SDS011;17892;52.080;9.006;2023-02-24T16:21:31;8.70;;;5.78;;
31262;SDS011;17892;52.080;9.006;2023-02-24T16:23:57;11.57;;;5.53;;
31262;SDS011;17892;52.080;9.006;2023-02-24T16:26:23;10.93;;;5.70;;
31262;SDS011;17892;52.080;9.006;2023-02-24T16:28:50;10.15;;;5.55;;
31262;SDS011;17892;52.080;9.006;2023-02-24T16:31:20;8.23;;;4.68;;
31262;SDS011;17892;52.080;9.006;2023-02-24T16:33:47;8.98;;;5.10;;
31262;SDS011;17892;52.080;9.006;2023-02-24T16:36:13;9.60;;;5.93;;
31262;SDS011;17892;52.080;9.006;2023-02-24T16:38:39;10.07;;;5.30;;
31262;SDS011;17892;52.080;9.006;2023-02-24T16:41:08;9.20;;;5.45;;
31262;SDS011;17892;52.080;9.006;2023-02-24T16:43:37;8.75;;;5.15;;
31262;SDS011;17892;52.080;9.006;2023-02-24T16:46:05;11.10;;;6.13;;
31262;SDS011;17892;52.080;9.006;2023-02-24T16:48:38;13.30;;;8.00;;
31262;SDS011;17892;52.080;9.006;2023-02-24T16:51:05;6.68;;;4.47;;
31262;SDS011;17892;52.080;9.006;2023-02-24T16:53:32;12.02;;;6.18;;
31262;SDS011;17892;52.080;9.006;2023-02-24T16:55:58;8.70;;;4.68;;
31262;SDS011;17892;52.080;9.006;2023-02-24T16:58:24;9.82;;;5.50;;
31262;SDS011;17892;52.080;9.006;2023-02-24T17:00:52;8.02;;;4.43;;
31262;SDS011;17892;52.080;9.006;2023-02-24T17:03:24;8.60;;;4.93;;
31262;SDS011;17892;52.080;9.006;2023-02-24T17:05:55;9.43;;;5.00;;
31262;SDS011;17892;52.080;9.006;2023-02-24T17:08:21;6.68;;;4.75;;
31262;SDS011;17892;52.080;9.006;2023-02-24T17:10:47;6.95;;;4.13;;
31262;SDS011;17892;52.080;9.006;2023-02-24T17:13:15;9.02;;;4.32;;
31262;SDS011;17892;52.080;9.006;2023-02-24T17:15:43;9.65;;;5.30;;
31262;SDS011;17892;52.080;9.006;2023-02-24T17:18:10;9.98;;;5.30;;
31262;SDS011;17892;52.080;9.006;2023-02-24T17:20:37;7.80;;;4.88;;
31262;SDS011;17892;52.080;9.006;2023-02-24T17:23:04;7.78;;;5.03;;
31262;SDS011;17892;52.080;9.006;2023-02-24T17:25:31;12.00;;;7.53;;
31262;SDS011;17892;52.080;9.006;2023-02-24T17:27:58;10.57;;;5.63;;
31262;SDS011;17892;52.080;9.006;2023-02-24T17:30:25;9.25;;;5.53;;
31262;SDS011;17892;52.080;9.006;2023-02-24T17:32:54;7.53;;;4.50;;
31262;SDS011;17892;52.080;9.006;2023-02-24T17:35:20;7.18;;;4.57;;
31262;SDS011;17892;52.080;9.006;2023-02-24T17:37:47;7.50;;;3.95;;
31262;SDS011;17892;52.080;9.006;2023-02-24T17:40:12;5.97;;;2.95;;
31262;SDS011;17892;52.080;9.006;2023-02-24T17:42:39;5.03;;;3.42;;
31262;SDS011;17892;52.080;9.006;2023-02-24T17:45:05;6.00;;;3.72;;
31262;SDS011;17892;52.080;9.006;2023-02-24T17:47:33;4.63;;;3.03;;
31262;SDS011;17892;52.080;9.006;2023-02-24T17:50:00;4.95;;;2.90;;
31262;SDS011;17892;52.080;9.006;2023-02-24T17:52:27;5.43;;;2.80;;